sensor_id;sensor_type;location;lat;lon;timestamp;temperature;humidity
61398;DHT22;47267;48.130;-2.040;2023-02-27T00:01:07;18.30;42.10
61398;DHT22;47267;48.130;-2.040;2023-02-27T00:03:33;18.30;42.20
61398;DHT22;47267;48.130;-2.040;2023-02-27T00:05:58;18.30;42.20
61398;DHT22;47267;48.130;-2.040;2023-02-27T00:08:24;18.30;42.10
61398;DHT22;47267;48.130;-2.040;2023-02-27T00:10:50;18.30;42.20
61398;DHT22;47267;48.130;-2.040;2023-02-27T00:13:16;18.30;42.20
61398;DHT22;47267;48.130;-2.040;2023-02-27T00:15:45;18.30;42.00
61398;DHT22;47267;48.130;-2.040;2023-02-27T00:18:11;18.30;42.10
61398;DHT22;47267;48.130;-2.040;2023-02-27T00:20:37;18.30;42.10
61398;DHT22;47267;48.130;-2.040;2023-02-27T00:23:06;18.30;42.00
61398;DHT22;47267;48.130;-2.040;2023-02-27T00:25:33;18.30;41.90
61398;DHT22;47267;48.130;-2.040;2023-02-27T00:28:00;18.20;41.90
61398;DHT22;47267;48.130;-2.040;2023-02-27T00:30:26;18.20;41.80
61398;DHT22;47267;48.130;-2.040;2023-02-27T00:32:54;18.20;41.80
61398;DHT22;47267;48.130;-2.040;2023-02-27T00:35:20;18.20;41.70
61398;DHT22;47267;48.130;-2.040;2023-02-27T00:37:47;18.20;41.80
61398;DHT22;47267;48.130;-2.040;2023-02-27T00:40:12;18.20;41.70
61398;DHT22;47267;48.130;-2.040;2023-02-27T00:42:38;18.20;41.70
61398;DHT22;47267;48.130;-2.040;2023-02-27T00:45:05;18.20;41.70
61398;DHT22;47267;48.130;-2.040;2023-02-27T00:47:32;18.20;41.70
61398;DHT22;47267;48.130;-2.040;2023-02-27T00:49:58;18.20;41.70
61398;DHT22;47267;48.130;-2.040;2023-02-27T00:52:24;18.20;41.80
61398;DHT22;47267;48.130;-2.040;2023-02-27T00:54:49;18.20;41.80
61398;DHT22;47267;48.130;-2.040;2023-02-27T00:57:15;18.20;41.80
61398;DHT22;47267;48.130;-2.040;2023-02-27T00:59:41;18.20;41.80
61398;DHT22;47267;48.130;-2.040;2023-02-27T01:02:07;18.20;41.70
61398;DHT22;47267;48.130;-2.040;2023-02-27T01:04:32;18.20;41.80
61398;DHT22;47267;48.130;-2.040;2023-02-27T01:06:58;18.20;41.70
61398;DHT22;47267;48.130;-2.040;2023-02-27T01:09:24;18.10;41.70
61398;DHT22;47267;48.130;-2.040;2023-02-27T01:11:50;18.20;41.70
61398;DHT22;47267;48.130;-2.040;2023-02-27T01:14:16;18.10;41.70
61398;DHT22;47267;48.130;-2.040;2023-02-27T01:16:41;18.20;41.70
61398;DHT22;47267;48.130;-2.040;2023-02-27T01:19:07;18.10;41.60
61398;DHT22;47267;48.130;-2.040;2023-02-27T01:21:33;18.10;41.60
61398;DHT22;47267;48.130;-2.040;2023-02-27T01:23:59;18.10;41.70
61398;DHT22;47267;48.130;-2.040;2023-02-27T01:26:25;18.10;41.70
61398;DHT22;47267;48.130;-2.040;2023-02-27T01:28:50;18.10;41.70
61398;DHT22;47267;48.130;-2.040;2023-02-27T01:31:16;18.10;41.60
61398;DHT22;47267;48.130;-2.040;2023-02-27T01:33:42;18.10;41.70
61398;DHT22;47267;48.130;-2.040;2023-02-27T01:36:08;18.10;41.60
61398;DHT22;47267;48.130;-2.040;2023-02-27T01:38:34;18.10;41.60
61398;DHT22;47267;48.130;-2.040;2023-02-27T01:41:00;18.10;41.60
61398;DHT22;47267;48.130;-2.040;2023-02-27T01:43:26;18.10;41.60
61398;DHT22;47267;48.130;-2.040;2023-02-27T01:45:52;18.10;41.60
61398;DHT22;47267;48.130;-2.040;2023-02-27T01:48:31;18.10;41.60
61398;DHT22;47267;48.130;-2.040;2023-02-27T01:51:02;18.10;41.50
61398;DHT22;47267;48.130;-2.040;2023-02-27T01:53:30;18.10;41.60
61398;DHT22;47267;48.130;-2.040;2023-02-27T01:56:10;18.10;41.50
61398;DHT22;47267;48.130;-2.040;2023-02-27T01:58:37;18.10;41.40
61398;DHT22;47267;48.130;-2.040;2023-02-27T02:01:03;18.10;41.50
61398;DHT22;47267;48.130;-2.040;2023-02-27T02:06:21;18.00;41.50
61398;DHT22;47267;48.130;-2.040;2023-02-27T02:08:49;18.10;41.40
61398;DHT22;47267;48.130;-2.040;2023-02-27T02:11:17;18.00;41.40
61398;DHT22;47267;48.130;-2.040;2023-02-27T02:13:43;18.00;41.30
61398;DHT22;47267;48.130;-2.040;2023-02-27T02:16:37;18.00;41.40
61398;DHT22;47267;48.130;-2.040;2023-02-27T02:46:17;18.00;41.20
61398;DHT22;47267;48.130;-2.040;2023-02-27T02:54:05;18.00;41.30
61398;DHT22;47267;48.130;-2.040;2023-02-27T02:56:39;18.00;41.20
61398;DHT22;47267;48.130;-2.040;2023-02-27T02:59:13;18.00;41.30
61398;DHT22;47267;48.130;-2.040;2023-02-27T03:01:51;18.00;41.30
61398;DHT22;47267;48.130;-2.040;2023-02-27T03:04:27;17.90;41.20
61398;DHT22;47267;48.130;-2.040;2023-02-27T03:10:06;17.90;41.20
61398;DHT22;47267;48.130;-2.040;2023-02-27T03:12:32;17.90;41.20
61398;DHT22;47267;48.130;-2.040;2023-02-27T03:15:13;17.90;41.20
61398;DHT22;47267;48.130;-2.040;2023-02-27T03:17:54;17.90;41.20
61398;DHT22;47267;48.130;-2.040;2023-02-27T03:20:27;17.90;41.20
61398;DHT22;47267;48.130;-2.040;2023-02-27T03:22:58;17.90;41.10
61398;DHT22;47267;48.130;-2.040;2023-02-27T03:25:27;17.90;41.20
61398;DHT22;47267;48.130;-2.040;2023-02-27T03:27:58;17.90;41.20
61398;DHT22;47267;48.130;-2.040;2023-02-27T03:33:09;17.90;41.10
61398;DHT22;47267;48.130;-2.040;2023-02-27T03:35:42;17.90;41.20
61398;DHT22;47267;48.130;-2.040;2023-02-27T03:38:27;17.90;41.10
61398;DHT22;47267;48.130;-2.040;2023-02-27T03:41:26;17.90;41.00
61398;DHT22;47267;48.130;-2.040;2023-02-27T03:46:45;17.90;41.00
61398;DHT22;47267;48.130;-2.040;2023-02-27T03:49:10;17.90;41.00
61398;DHT22;47267;48.130;-2.040;2023-02-27T03:51:36;17.90;41.00
61398;DHT22;47267;48.130;-2.040;2023-02-27T03:56:55;17.90;41.00
61398;DHT22;47267;48.130;-2.040;2023-02-27T03:59:23;17.90;41.00
61398;DHT22;47267;48.130;-2.040;2023-02-27T04:01:50;17.90;41.00
61398;DHT22;47267;48.130;-2.040;2023-02-27T04:04:17;17.90;41.00
61398;DHT22;47267;48.130;-2.040;2023-02-27T04:06:55;17.90;41.00
61398;DHT22;47267;48.130;-2.040;2023-02-27T04:21:12;17.80;40.90
61398;DHT22;47267;48.130;-2.040;2023-02-27T04:23:40;17.80;40.90
61398;DHT22;47267;48.130;-2.040;2023-02-27T04:26:27;17.80;41.40
61398;DHT22;47267;48.130;-2.040;2023-02-27T04:29:20;17.80;40.90
61398;DHT22;47267;48.130;-2.040;2023-02-27T04:39:43;17.80;40.80
61398;DHT22;47267;48.130;-2.040;2023-02-27T04:42:14;17.80;40.80
61398;DHT22;47267;48.130;-2.040;2023-02-27T04:44:44;17.80;40.70
61398;DHT22;47267;48.130;-2.040;2023-02-27T04:47:13;17.80;40.80
61398;DHT22;47267;48.130;-2.040;2023-02-27T04:49:50;17.70;40.70
61398;DHT22;47267;48.130;-2.040;2023-02-27T04:52:35;17.70;40.60
61398;DHT22;47267;48.130;-2.040;2023-02-27T04:57:44;17.80;40.80
61398;DHT22;47267;48.130;-2.040;2023-02-27T05:00:15;17.80;40.80
61398;DHT22;47267;48.130;-2.040;2023-02-27T05:02:46;17.70;40.70
61398;DHT22;47267;48.130;-2.040;2023-02-27T05:05:17;17.80;40.80
61398;DHT22;47267;48.130;-2.040;2023-02-27T05:07:51;17.70;40.70
61398;DHT22;47267;48.130;-2.040;2023-02-27T05:10:34;17.70;40.70
61398;DHT22;47267;48.130;-2.040;2023-02-27T05:13:09;17.70;40.80
61398;DHT22;47267;48.130;-2.040;2023-02-27T05:15:49;17.70;40.70
61398;DHT22;47267;48.130;-2.040;2023-02-27T05:18:21;17.70;40.60
61398;DHT22;47267;48.130;-2.040;2023-02-27T05:21:00;17.70;40.60
61398;DHT22;47267;48.130;-2.040;2023-02-27T05:26:26;17.70;40.60
61398;DHT22;47267;48.130;-2.040;2023-02-27T05:29:30;17.70;40.60
61398;DHT22;47267;48.130;-2.040;2023-02-27T05:34:31;17.70;40.50
61398;DHT22;47267;48.130;-2.040;2023-02-27T05:37:06;17.70;40.50
61398;DHT22;47267;48.130;-2.040;2023-02-27T05:39:35;17.70;40.60
61398;DHT22;47267;48.130;-2.040;2023-02-27T05:42:35;17.60;40.50
61398;DHT22;47267;48.130;-2.040;2023-02-27T05:45:08;17.70;40.50
61398;DHT22;47267;48.130;-2.040;2023-02-27T05:47:38;17.60;40.50
61398;DHT22;47267;48.130;-2.040;2023-02-27T05:52:36;17.60;40.50
61398;DHT22;47267;48.130;-2.040;2023-02-27T05:55:20;17.60;40.50
61398;DHT22;47267;48.130;-2.040;2023-02-27T05:57:56;17.60;40.40
61398;DHT22;47267;48.130;-2.040;2023-02-27T06:00:46;17.60;40.40
61398;DHT22;47267;48.130;-2.040;2023-02-27T06:03:13;17.60;40.40
61398;DHT22;47267;48.130;-2.040;2023-02-27T06:05:41;17.60;40.40
61398;DHT22;47267;48.130;-2.040;2023-02-27T06:08:07;17.60;40.50
61398;DHT22;47267;48.130;-2.040;2023-02-27T06:10:33;17.60;40.40
61398;DHT22;47267;48.130;-2.040;2023-02-27T06:12:59;17.60;40.40
61398;DHT22;47267;48.130;-2.040;2023-02-27T06:15:24;17.60;40.40
61398;DHT22;47267;48.130;-2.040;2023-02-27T06:17:50;17.60;40.50
61398;DHT22;47267;48.130;-2.040;2023-02-27T06:20:16;17.60;40.50
61398;DHT22;47267;48.130;-2.040;2023-02-27T06:22:42;17.60;40.50
61398;DHT22;47267;48.130;-2.040;2023-02-27T06:25:09;17.60;40.50
61398;DHT22;47267;48.130;-2.040;2023-02-27T06:27:35;17.60;40.50
61398;DHT22;47267;48.130;-2.040;2023-02-27T06:30:01;17.60;40.50
61398;DHT22;47267;48.130;-2.040;2023-02-27T06:32:27;17.60;40.50
61398;DHT22;47267;48.130;-2.040;2023-02-27T06:34:53;17.60;40.50
61398;DHT22;47267;48.130;-2.040;2023-02-27T06:37:19;17.50;40.40
61398;DHT22;47267;48.130;-2.040;2023-02-27T06:39:46;17.50;40.40
61398;DHT22;47267;48.130;-2.040;2023-02-27T06:42:12;17.50;40.40
61398;DHT22;47267;48.130;-2.040;2023-02-27T06:44:38;17.50;40.50
61398;DHT22;47267;48.130;-2.040;2023-02-27T06:47:04;17.50;40.50
61398;DHT22;47267;48.130;-2.040;2023-02-27T06:49:30;17.50;40.70
61398;DHT22;47267;48.130;-2.040;2023-02-27T06:51:56;17.50;40.70
61398;DHT22;47267;48.130;-2.040;2023-02-27T06:54:21;17.50;40.90
61398;DHT22;47267;48.130;-2.040;2023-02-27T06:56:47;17.50;41.00
61398;DHT22;47267;48.130;-2.040;2023-02-27T06:59:16;17.50;41.10
61398;DHT22;47267;48.130;-2.040;2023-02-27T07:01:42;17.50;41.10
61398;DHT22;47267;48.130;-2.040;2023-02-27T07:04:12;17.50;41.30
61398;DHT22;47267;48.130;-2.040;2023-02-27T07:06:38;17.50;41.30
61398;DHT22;47267;48.130;-2.040;2023-02-27T07:09:04;17.50;41.40
61398;DHT22;47267;48.130;-2.040;2023-02-27T07:11:29;17.50;41.40
61398;DHT22;47267;48.130;-2.040;2023-02-27T07:13:55;17.60;41.60
61398;DHT22;47267;48.130;-2.040;2023-02-27T07:16:21;17.50;41.70
61398;DHT22;47267;48.130;-2.040;2023-02-27T07:18:47;17.50;41.50
61398;DHT22;47267;48.130;-2.040;2023-02-27T07:21:13;17.50;41.50
61398;DHT22;47267;48.130;-2.040;2023-02-27T07:23:40;17.60;41.60
61398;DHT22;47267;48.130;-2.040;2023-02-27T07:26:06;17.50;41.50
61398;DHT22;47267;48.130;-2.040;2023-02-27T07:28:32;17.60;41.60
61398;DHT22;47267;48.130;-2.040;2023-02-27T07:30:58;17.50;41.60
61398;DHT22;47267;48.130;-2.040;2023-02-27T07:33:24;17.60;41.60
61398;DHT22;47267;48.130;-2.040;2023-02-27T07:35:50;17.60;41.70
61398;DHT22;47267;48.130;-2.040;2023-02-27T07:38:16;17.60;41.70
61398;DHT22;47267;48.130;-2.040;2023-02-27T07:40:44;17.60;41.80
61398;DHT22;47267;48.130;-2.040;2023-02-27T07:43:10;17.60;41.80
61398;DHT22;47267;48.130;-2.040;2023-02-27T07:45:36;17.60;41.80
61398;DHT22;47267;48.130;-2.040;2023-02-27T07:48:02;17.60;41.80
61398;DHT22;47267;48.130;-2.040;2023-02-27T07:50:28;17.60;41.80
61398;DHT22;47267;48.130;-2.040;2023-02-27T07:52:53;17.60;41.90
61398;DHT22;47267;48.130;-2.040;2023-02-27T07:55:19;17.60;41.90
61398;DHT22;47267;48.130;-2.040;2023-02-27T07:57:45;17.70;42.00
61398;DHT22;47267;48.130;-2.040;2023-02-27T08:00:11;17.60;42.00
61398;DHT22;47267;48.130;-2.040;2023-02-27T08:02:37;17.70;42.10
61398;DHT22;47267;48.130;-2.040;2023-02-27T08:05:03;17.70;42.10
61398;DHT22;47267;48.130;-2.040;2023-02-27T08:07:29;17.70;42.10
61398;DHT22;47267;48.130;-2.040;2023-02-27T08:09:55;17.70;42.10
61398;DHT22;47267;48.130;-2.040;2023-02-27T08:12:20;17.80;42.20
61398;DHT22;47267;48.130;-2.040;2023-02-27T08:14:47;17.70;42.10
61398;DHT22;47267;48.130;-2.040;2023-02-27T08:17:12;17.70;42.10
61398;DHT22;47267;48.130;-2.040;2023-02-27T08:19:38;17.70;42.20
61398;DHT22;47267;48.130;-2.040;2023-02-27T08:22:04;17.80;42.30
61398;DHT22;47267;48.130;-2.040;2023-02-27T08:24:30;17.80;42.30
61398;DHT22;47267;48.130;-2.040;2023-02-27T08:26:55;17.80;42.30
61398;DHT22;47267;48.130;-2.040;2023-02-27T08:29:22;17.80;42.30
61398;DHT22;47267;48.130;-2.040;2023-02-27T08:31:47;17.80;42.30
61398;DHT22;47267;48.130;-2.040;2023-02-27T08:34:13;17.90;42.40
61398;DHT22;47267;48.130;-2.040;2023-02-27T08:36:39;17.90;42.40
61398;DHT22;47267;48.130;-2.040;2023-02-27T08:39:06;17.90;42.40
61398;DHT22;47267;48.130;-2.040;2023-02-27T08:41:32;17.90;42.40
61398;DHT22;47267;48.130;-2.040;2023-02-27T08:43:58;17.90;42.40
61398;DHT22;47267;48.130;-2.040;2023-02-27T08:46:24;17.90;42.50
61398;DHT22;47267;48.130;-2.040;2023-02-27T08:48:49;17.90;42.50
61398;DHT22;47267;48.130;-2.040;2023-02-27T08:51:15;18.00;42.60
61398;DHT22;47267;48.130;-2.040;2023-02-27T08:53:41;18.00;42.60
61398;DHT22;47267;48.130;-2.040;2023-02-27T08:56:06;18.00;42.60
61398;DHT22;47267;48.130;-2.040;2023-02-27T08:58:32;18.00;42.60
61398;DHT22;47267;48.130;-2.040;2023-02-27T09:01:00;18.00;42.60
61398;DHT22;47267;48.130;-2.040;2023-02-27T09:03:26;18.00;42.60
61398;DHT22;47267;48.130;-2.040;2023-02-27T09:05:53;18.00;42.60
61398;DHT22;47267;48.130;-2.040;2023-02-27T09:08:20;18.10;43.30
61398;DHT22;47267;48.130;-2.040;2023-02-27T09:10:46;18.10;42.70
61398;DHT22;47267;48.130;-2.040;2023-02-27T09:13:11;18.10;42.70
61398;DHT22;47267;48.130;-2.040;2023-02-27T09:15:37;18.10;42.80
61398;DHT22;47267;48.130;-2.040;2023-02-27T09:18:04;18.10;42.80
61398;DHT22;47267;48.130;-2.040;2023-02-27T09:20:32;18.20;42.90
61398;DHT22;47267;48.130;-2.040;2023-02-27T09:23:00;18.20;42.90
61398;DHT22;47267;48.130;-2.040;2023-02-27T09:25:26;18.20;42.90
61398;DHT22;47267;48.130;-2.040;2023-02-27T09:27:52;18.20;43.50
61398;DHT22;47267;48.130;-2.040;2023-02-27T09:30:18;18.20;42.90
61398;DHT22;47267;48.130;-2.040;2023-02-27T09:32:44;18.20;42.90
61398;DHT22;47267;48.130;-2.040;2023-02-27T09:35:10;18.30;43.40
61398;DHT22;47267;48.130;-2.040;2023-02-27T09:37:36;18.30;43.10
61398;DHT22;47267;48.130;-2.040;2023-02-27T09:40:02;18.30;43.10
61398;DHT22;47267;48.130;-2.040;2023-02-27T09:42:37;18.30;43.10
61398;DHT22;47267;48.130;-2.040;2023-02-27T09:45:31;18.30;43.20
61398;DHT22;47267;48.130;-2.040;2023-02-27T09:48:20;18.30;43.20
61398;DHT22;47267;48.130;-2.040;2023-02-27T09:50:50;18.30;43.30
61398;DHT22;47267;48.130;-2.040;2023-02-27T09:53:29;18.30;43.30
61398;DHT22;47267;48.130;-2.040;2023-02-27T09:56:20;18.40;43.40
61398;DHT22;47267;48.130;-2.040;2023-02-27T09:58:53;18.40;43.40
61398;DHT22;47267;48.130;-2.040;2023-02-27T10:01:35;18.40;43.50
61398;DHT22;47267;48.130;-2.040;2023-02-27T10:04:15;18.40;43.50
61398;DHT22;47267;48.130;-2.040;2023-02-27T10:14:50;18.50;43.70
61398;DHT22;47267;48.130;-2.040;2023-02-27T10:19:50;18.50;43.70
61398;DHT22;47267;48.130;-2.040;2023-02-27T10:22:22;18.50;43.70
61398;DHT22;47267;48.130;-2.040;2023-02-27T10:24:59;18.50;43.60
61398;DHT22;47267;48.130;-2.040;2023-02-27T10:27:26;18.60;43.70
61398;DHT22;47267;48.130;-2.040;2023-02-27T10:29:57;18.60;43.70
61398;DHT22;47267;48.130;-2.040;2023-02-27T10:32:32;18.60;43.70
61398;DHT22;47267;48.130;-2.040;2023-02-27T10:37:47;18.60;43.70
61398;DHT22;47267;48.130;-2.040;2023-02-27T10:40:14;18.60;43.80
61398;DHT22;47267;48.130;-2.040;2023-02-27T10:42:41;18.60;43.70
61398;DHT22;47267;48.130;-2.040;2023-02-27T10:45:13;18.60;43.70
61398;DHT22;47267;48.130;-2.040;2023-02-27T10:47:42;18.70;43.70
61398;DHT22;47267;48.130;-2.040;2023-02-27T10:50:30;18.60;43.60
61398;DHT22;47267;48.130;-2.040;2023-02-27T10:52:59;18.70;43.70
61398;DHT22;47267;48.130;-2.040;2023-02-27T10:55:31;18.70;43.70
61398;DHT22;47267;48.130;-2.040;2023-02-27T10:57:57;18.70;43.70
61398;DHT22;47267;48.130;-2.040;2023-02-27T11:03:00;18.70;43.70
61398;DHT22;47267;48.130;-2.040;2023-02-27T11:05:33;18.70;43.80
61398;DHT22;47267;48.130;-2.040;2023-02-27T11:10:55;18.80;43.80
61398;DHT22;47267;48.130;-2.040;2023-02-27T11:13:23;18.80;43.80
61398;DHT22;47267;48.130;-2.040;2023-02-27T11:16:10;18.80;43.80
61398;DHT22;47267;48.130;-2.040;2023-02-27T11:18:39;18.80;43.90
61398;DHT22;47267;48.130;-2.040;2023-02-27T11:21:21;18.80;43.80
61398;DHT22;47267;48.130;-2.040;2023-02-27T11:26:28;18.90;43.90
61398;DHT22;47267;48.130;-2.040;2023-02-27T11:29:15;18.90;43.90
61398;DHT22;47267;48.130;-2.040;2023-02-27T11:32:04;18.90;43.90
61398;DHT22;47267;48.130;-2.040;2023-02-27T11:34:38;18.90;43.90
61398;DHT22;47267;48.130;-2.040;2023-02-27T11:37:09;18.90;43.90
61398;DHT22;47267;48.130;-2.040;2023-02-27T11:39:55;18.90;43.90
61398;DHT22;47267;48.130;-2.040;2023-02-27T11:42:29;18.90;43.90
61398;DHT22;47267;48.130;-2.040;2023-02-27T11:45:02;18.90;43.90
61398;DHT22;47267;48.130;-2.040;2023-02-27T11:47:34;18.90;43.90
61398;DHT22;47267;48.130;-2.040;2023-02-27T11:50:06;18.90;43.90
61398;DHT22;47267;48.130;-2.040;2023-02-27T11:52:52;19.00;44.00
61398;DHT22;47267;48.130;-2.040;2023-02-27T11:55:21;19.00;44.00
61398;DHT22;47267;48.130;-2.040;2023-02-27T11:57:53;19.00;44.00
61398;DHT22;47267;48.130;-2.040;2023-02-27T12:00:32;19.00;44.00
61398;DHT22;47267;48.130;-2.040;2023-02-27T12:05:50;19.00;44.00
61398;DHT22;47267;48.130;-2.040;2023-02-27T12:13:24;19.00;44.00
61398;DHT22;47267;48.130;-2.040;2023-02-27T12:16:02;19.00;44.00
61398;DHT22;47267;48.130;-2.040;2023-02-27T12:18:52;19.00;44.00
61398;DHT22;47267;48.130;-2.040;2023-02-27T12:21:21;19.00;44.00
61398;DHT22;47267;48.130;-2.040;2023-02-27T12:23:50;19.00;44.00
61398;DHT22;47267;48.130;-2.040;2023-02-27T12:29:01;19.00;44.00
61398;DHT22;47267;48.130;-2.040;2023-02-27T12:36:44;19.00;44.00
61398;DHT22;47267;48.130;-2.040;2023-02-27T12:39:21;19.00;44.00
61398;DHT22;47267;48.130;-2.040;2023-02-27T12:42:13;19.00;44.00
61398;DHT22;47267;48.130;-2.040;2023-02-27T12:45:08;19.00;44.00
61398;DHT22;47267;48.130;-2.040;2023-02-27T12:47:44;19.00;44.00
61398;DHT22;47267;48.130;-2.040;2023-02-27T12:50:20;19.00;44.10
61398;DHT22;47267;48.130;-2.040;2023-02-27T12:55:54;19.10;44.10
61398;DHT22;47267;48.130;-2.040;2023-02-27T12:58:36;19.10;44.10
61398;DHT22;47267;48.130;-2.040;2023-02-27T13:01:14;19.10;44.30
61398;DHT22;47267;48.130;-2.040;2023-02-27T13:04:01;19.10;44.10
61398;DHT22;47267;48.130;-2.040;2023-02-27T13:07:16;19.10;44.10
61398;DHT22;47267;48.130;-2.040;2023-02-27T13:09:53;19.10;44.10
61398;DHT22;47267;48.130;-2.040;2023-02-27T13:12:36;19.10;44.10
61398;DHT22;47267;48.130;-2.040;2023-02-27T13:15:10;19.10;44.20
61398;DHT22;47267;48.130;-2.040;2023-02-27T13:17:53;19.10;44.10
61398;DHT22;47267;48.130;-2.040;2023-02-27T13:25:46;19.10;44.20
61398;DHT22;47267;48.130;-2.040;2023-02-27T13:28:14;19.10;44.20
61398;DHT22;47267;48.130;-2.040;2023-02-27T13:38:57;19.20;44.20
61398;DHT22;47267;48.130;-2.040;2023-02-27T13:56:46;19.20;44.20
61398;DHT22;47267;48.130;-2.040;2023-02-27T13:59:19;19.20;44.20
61398;DHT22;47267;48.130;-2.040;2023-02-27T14:02:05;19.30;44.20
61398;DHT22;47267;48.130;-2.040;2023-02-27T14:04:52;19.30;44.20
61398;DHT22;47267;48.130;-2.040;2023-02-27T14:07:25;19.30;44.20
61398;DHT22;47267;48.130;-2.040;2023-02-27T14:10:00;19.30;44.20
61398;DHT22;47267;48.130;-2.040;2023-02-27T14:12:32;19.30;44.20
61398;DHT22;47267;48.130;-2.040;2023-02-27T14:17:47;19.30;44.20
61398;DHT22;47267;48.130;-2.040;2023-02-27T14:23:18;19.40;44.30
61398;DHT22;47267;48.130;-2.040;2023-02-27T14:26:18;19.40;44.30
61398;DHT22;47267;48.130;-2.040;2023-02-27T14:28:51;19.40;44.40
61398;DHT22;47267;48.130;-2.040;2023-02-27T14:31:31;19.50;44.40
61398;DHT22;47267;48.130;-2.040;2023-02-27T14:33:59;19.50;44.40
61398;DHT22;47267;48.130;-2.040;2023-02-27T14:36:33;19.60;44.50
61398;DHT22;47267;48.130;-2.040;2023-02-27T14:39:01;19.60;44.50
61398;DHT22;47267;48.130;-2.040;2023-02-27T14:44:42;19.80;44.50
61398;DHT22;47267;48.130;-2.040;2023-02-27T14:49:47;19.90;44.50
61398;DHT22;47267;48.130;-2.040;2023-02-27T14:52:20;19.90;44.40
61398;DHT22;47267;48.130;-2.040;2023-02-27T14:54:46;20.00;44.40
61398;DHT22;47267;48.130;-2.040;2023-02-27T14:57:21;20.10;44.40
61398;DHT22;47267;48.130;-2.040;2023-02-27T14:59:52;20.10;44.40
61398;DHT22;47267;48.130;-2.040;2023-02-27T15:02:26;20.10;44.40
61398;DHT22;47267;48.130;-2.040;2023-02-27T15:07:32;20.20;44.40
61398;DHT22;47267;48.130;-2.040;2023-02-27T15:10:00;20.20;44.30
61398;DHT22;47267;48.130;-2.040;2023-02-27T15:12:27;20.20;44.30
61398;DHT22;47267;48.130;-2.040;2023-02-27T15:14:58;20.20;44.30
61398;DHT22;47267;48.130;-2.040;2023-02-27T15:17:46;20.20;44.30
61398;DHT22;47267;48.130;-2.040;2023-02-27T15:20:34;20.30;44.30
61398;DHT22;47267;48.130;-2.040;2023-02-27T15:23:16;20.30;44.30
61398;DHT22;47267;48.130;-2.040;2023-02-27T15:25:44;20.30;44.30
61398;DHT22;47267;48.130;-2.040;2023-02-27T15:28:35;20.20;44.30
61398;DHT22;47267;48.130;-2.040;2023-02-27T15:31:01;20.30;44.30
61398;DHT22;47267;48.130;-2.040;2023-02-27T15:33:29;20.30;44.30
61398;DHT22;47267;48.130;-2.040;2023-02-27T15:35:56;20.30;44.30
61398;DHT22;47267;48.130;-2.040;2023-02-27T15:38:32;20.30;44.70
61398;DHT22;47267;48.130;-2.040;2023-02-27T15:40:59;20.30;44.20
61398;DHT22;47267;48.130;-2.040;2023-02-27T15:43:27;20.30;44.30
61398;DHT22;47267;48.130;-2.040;2023-02-27T15:45:53;20.30;44.20
61398;DHT22;47267;48.130;-2.040;2023-02-27T15:48:19;20.30;44.30
61398;DHT22;47267;48.130;-2.040;2023-02-27T15:50:57;20.30;44.30
61398;DHT22;47267;48.130;-2.040;2023-02-27T15:53:25;20.30;44.30
61398;DHT22;47267;48.130;-2.040;2023-02-27T15:55:56;20.30;44.20
61398;DHT22;47267;48.130;-2.040;2023-02-27T15:58:27;20.30;44.20
61398;DHT22;47267;48.130;-2.040;2023-02-27T16:03:25;20.30;44.20
61398;DHT22;47267;48.130;-2.040;2023-02-27T16:05:55;20.30;44.20
61398;DHT22;47267;48.130;-2.040;2023-02-27T16:08:22;20.30;44.20
61398;DHT22;47267;48.130;-2.040;2023-02-27T16:10:48;20.30;44.20
61398;DHT22;47267;48.130;-2.040;2023-02-27T16:16:02;20.30;44.20
61398;DHT22;47267;48.130;-2.040;2023-02-27T16:18:45;20.20;44.20
61398;DHT22;47267;48.130;-2.040;2023-02-27T16:21:16;20.30;44.20
61398;DHT22;47267;48.130;-2.040;2023-02-27T16:23:43;20.20;44.10
61398;DHT22;47267;48.130;-2.040;2023-02-27T16:26:31;20.20;44.10
61398;DHT22;47267;48.130;-2.040;2023-02-27T16:31:36;20.20;44.10
61398;DHT22;47267;48.130;-2.040;2023-02-27T16:34:31;20.20;44.10
61398;DHT22;47267;48.130;-2.040;2023-02-27T16:37:01;20.20;44.10
61398;DHT22;47267;48.130;-2.040;2023-02-27T16:39:29;20.20;44.10
61398;DHT22;47267;48.130;-2.040;2023-02-27T16:41:57;20.20;44.10
61398;DHT22;47267;48.130;-2.040;2023-02-27T16:44:23;20.20;44.10
61398;DHT22;47267;48.130;-2.040;2023-02-27T16:46:50;20.20;44.10
61398;DHT22;47267;48.130;-2.040;2023-02-27T16:49:24;20.10;44.00
61398;DHT22;47267;48.130;-2.040;2023-02-27T16:51:51;20.10;44.00
61398;DHT22;47267;48.130;-2.040;2023-02-27T16:54:17;20.10;44.10
61398;DHT22;47267;48.130;-2.040;2023-02-27T16:56:43;20.10;44.00
61398;DHT22;47267;48.130;-2.040;2023-02-27T16:59:40;20.10;44.00
61398;DHT22;47267;48.130;-2.040;2023-02-27T17:02:10;20.10;44.00
61398;DHT22;47267;48.130;-2.040;2023-02-27T17:04:37;20.10;44.00
61398;DHT22;47267;48.130;-2.040;2023-02-27T17:07:03;20.10;44.00
61398;DHT22;47267;48.130;-2.040;2023-02-27T17:09:29;20.00;44.00
61398;DHT22;47267;48.130;-2.040;2023-02-27T17:11:56;20.00;43.90
61398;DHT22;47267;48.130;-2.040;2023-02-27T17:14:22;20.00;43.90
61398;DHT22;47267;48.130;-2.040;2023-02-27T17:16:49;20.00;43.90
61398;DHT22;47267;48.130;-2.040;2023-02-27T17:19:15;20.00;43.90
61398;DHT22;47267;48.130;-2.040;2023-02-27T17:21:41;20.00;43.90
61398;DHT22;47267;48.130;-2.040;2023-02-27T17:24:07;19.90;43.80
61398;DHT22;47267;48.130;-2.040;2023-02-27T17:26:33;19.90;43.80
61398;DHT22;47267;48.130;-2.040;2023-02-27T17:28:59;19.90;43.80
61398;DHT22;47267;48.130;-2.040;2023-02-27T17:31:27;20.00;43.80
61398;DHT22;47267;48.130;-2.040;2023-02-27T17:33:53;19.90;43.70
61398;DHT22;47267;48.130;-2.040;2023-02-27T17:36:19;19.90;43.70
61398;DHT22;47267;48.130;-2.040;2023-02-27T17:38:45;19.90;43.70
61398;DHT22;47267;48.130;-2.040;2023-02-27T17:41:13;19.90;43.70
61398;DHT22;47267;48.130;-2.040;2023-02-27T17:43:40;19.80;43.70
61398;DHT22;47267;48.130;-2.040;2023-02-27T17:46:08;19.80;43.60
61398;DHT22;47267;48.130;-2.040;2023-02-27T17:48:35;19.80;43.60
61398;DHT22;47267;48.130;-2.040;2023-02-27T17:51:09;19.80;43.60
61398;DHT22;47267;48.130;-2.040;2023-02-27T17:53:36;19.70;43.50
61398;DHT22;47267;48.130;-2.040;2023-02-27T17:56:03;19.70;43.50
61398;DHT22;47267;48.130;-2.040;2023-02-27T17:58:30;19.70;43.40
61398;DHT22;47267;48.130;-2.040;2023-02-27T18:01:04;19.70;43.40
61398;DHT22;47267;48.130;-2.040;2023-02-27T18:03:30;19.70;43.30
61398;DHT22;47267;48.130;-2.040;2023-02-27T18:05:56;19.70;43.60
61398;DHT22;47267;48.130;-2.040;2023-02-27T18:08:22;19.70;43.60
61398;DHT22;47267;48.130;-2.040;2023-02-27T18:10:48;19.60;43.60
61398;DHT22;47267;48.130;-2.040;2023-02-27T18:13:15;19.60;43.60
61398;DHT22;47267;48.130;-2.040;2023-02-27T18:15:42;19.60;43.50
61398;DHT22;47267;48.130;-2.040;2023-02-27T18:18:08;19.60;43.50
61398;DHT22;47267;48.130;-2.040;2023-02-27T18:20:34;19.60;43.50
61398;DHT22;47267;48.130;-2.040;2023-02-27T18:23:00;19.60;43.40
61398;DHT22;47267;48.130;-2.040;2023-02-27T18:25:25;19.60;43.50